sensor_id;sensor_type;location;lat;lon;timestamp;pressure;altitude;pressure_sealevel;temperature;humidity
3102;BME280;1561;42.666;23.392;2022-08-19T00:00:58;94942.78;;;21.96;100.00
3102;BME280;1561;42.666;23.392;2022-08-19T00:03:28;94938.78;;;21.93;100.00
3102;BME280;1561;42.666;23.392;2022-08-19T00:05:56;94931.34;;;21.84;100.00
3102;BME280;1561;42.666;23.392;2022-08-19T00:08:23;94929.56;;;21.84;100.00
3102;BME280;1561;42.666;23.392;2022-08-19T00:10:51;94902.91;;;21.63;100.00
3102;BME280;1561;42.666;23.392;2022-08-19T00:13:18;94895.16;;;21.69;100.00
3102;BME280;1561;42.666;23.392;2022-08-19T00:15:45;94942.78;;;21.89;100.00
3102;BME280;1561;42.666;23.392;2022-08-19T00:18:14;94932.56;;;21.88;100.00
3102;BME280;1561;42.666;23.392;2022-08-19T00:20:41;94949.16;;;21.87;100.00
3102;BME280;1561;42.666;23.392;2022-08-19T00:23:12;94952.41;;;21.89;100.00
3102;BME280;1561;42.666;23.392;2022-08-19T00:25:41;94955.97;;;22.07;100.00
3102;BME280;1561;42.666;23.392;2022-08-19T00:28:13;94957.63;;;22.08;100.00
3102;BME280;1561;42.666;23.392;2022-08-19T00:30:42;94957.19;;;22.24;100.00
3102;BME280;1561;42.666;23.392;2022-08-19T00:33:16;94963.41;;;22.23;100.00
3102;BME280;1561;42.666;23.392;2022-08-19T00:35:51;94963.19;;;21.99;100.00
3102;BME280;1561;42.666;23.392;2022-08-19T00:38:19;94956.19;;;22.12;100.00
3102;BME280;1561;42.666;23.392;2022-08-19T00:40:49;94951.22;;;22.11;100.00
3102;BME280;1561;42.666;23.392;2022-08-19T00:43:23;94946.78;;;21.92;100.00
3102;BME280;1561;42.666;23.392;2022-08-19T00:45:50;94939.59;;;21.87;100.00
3102;BME280;1561;42.666;23.392;2022-08-19T00:48:21;94954.59;;;21.98;100.00
3102;BME280;1561;42.666;23.392;2022-08-19T00:50:53;94944.38;;;21.90;100.00
3102;BME280;1561;42.666;23.392;2022-08-19T00:53:24;94942.78;;;21.96;100.00
3102;BME280;1561;42.666;23.392;2022-08-19T00:55:55;94931.56;;;21.82;100.00
3102;BME280;1561;42.666;23.392;2022-08-19T00:58:26;94957.59;;;22.02;100.00
3102;BME280;1561;42.666;23.392;2022-08-19T01:00:55;94950.00;;;22.07;100.00
3102;BME280;1561;42.666;23.392;2022-08-19T01:03:25;94940.34;;;21.75;100.00
3102;BME280;1561;42.666;23.392;2022-08-19T01:06:06;94949.28;;;21.59;100.00
3102;BME280;1561;42.666;23.392;2022-08-19T01:08:40;94952.31;;;21.63;100.00
3102;BME280;1561;42.666;23.392;2022-08-19T01:11:09;94938.09;;;21.59;100.00
3102;BME280;1561;42.666;23.392;2022-08-19T01:13:36;94955.69;;;21.57;100.00
3102;BME280;1561;42.666;23.392;2022-08-19T01:16:09;94950.06;;;21.47;100.00
3102;BME280;1561;42.666;23.392;2022-08-19T01:18:45;94945.03;;;21.32;100.00
3102;BME280;1561;42.666;23.392;2022-08-19T01:21:22;94954.66;;;21.38;100.00
3102;BME280;1561;42.666;23.392;2022-08-19T01:24:04;94946.88;;;21.38;100.00
3102;BME280;1561;42.666;23.392;2022-08-19T01:26:39;94942.00;;;21.22;100.00
3102;BME280;1561;42.666;23.392;2022-08-19T01:29:09;94950.75;;;21.08;100.00
3102;BME280;1561;42.666;23.392;2022-08-19T01:31:50;94946.38;;;21.22;100.00
3102;BME280;1561;42.666;23.392;2022-08-19T01:34:19;94954.69;;;20.98;100.00
3102;BME280;1561;42.666;23.392;2022-08-19T01:36:50;94948.34;;;21.07;100.00
3102;BME280;1561;42.666;23.392;2022-08-19T01:39:26;94897.97;;;20.61;100.00
3102;BME280;1561;42.666;23.392;2022-08-19T01:41:57;94931.94;;;20.66;100.00
3102;BME280;1561;42.666;23.392;2022-08-19T01:44:30;94950.00;;;20.80;100.00
3102;BME280;1561;42.666;23.392;2022-08-19T01:46:58;94948.38;;;20.45;100.00
3102;BME280;1561;42.666;23.392;2022-08-19T01:49:39;94943.97;;;20.46;100.00
3102;BME280;1561;42.666;23.392;2022-08-19T01:52:07;94945.34;;;20.42;100.00
3102;BME280;1561;42.666;23.392;2022-08-19T01:54:40;94953.19;;;20.48;100.00
3102;BME280;1561;42.666;23.392;2022-08-19T01:57:10;94951.94;;;20.44;100.00
3102;BME280;1561;42.666;23.392;2022-08-19T01:59:42;94949.16;;;20.46;100.00
3102;BME280;1561;42.666;23.392;2022-08-19T02:02:13;94908.34;;;20.27;100.00
3102;BME280;1561;42.666;23.392;2022-08-19T02:04:41;94945.31;;;20.35;100.00
3102;BME280;1561;42.666;23.392;2022-08-19T02:07:08;94918.25;;;20.17;100.00
3102;BME280;1561;42.666;23.392;2022-08-19T02:09:39;94959.63;;;20.31;100.00
3102;BME280;1561;42.666;23.392;2022-08-19T02:12:07;94939.34;;;20.35;100.00
3102;BME280;1561;42.666;23.392;2022-08-19T02:14:35;94939.41;;;20.20;100.00
3102;BME280;1561;42.666;23.392;2022-08-19T02:17:04;94950.16;;;20.45;100.00
3102;BME280;1561;42.666;23.392;2022-08-19T02:19:31;94943.63;;;20.49;100.00
3102;BME280;1561;42.666;23.392;2022-08-19T02:22:00;94944.75;;;20.40;100.00
3102;BME280;1561;42.666;23.392;2022-08-19T02:24:28;94952.75;;;20.45;100.00
3102;BME280;1561;42.666;23.392;2022-08-19T02:27:00;94951.84;;;20.31;100.00
3102;BME280;1561;42.666;23.392;2022-08-19T02:29:31;94969.25;;;20.31;100.00
3102;BME280;1561;42.666;23.392;2022-08-19T02:31:58;94961.06;;;20.34;100.00
3102;BME280;1561;42.666;23.392;2022-08-19T02:34:26;94957.69;;;20.33;100.00
3102;BME280;1561;42.666;23.392;2022-08-19T02:36:54;94968.41;;;20.30;100.00
3102;BME280;1561;42.666;23.392;2022-08-19T02:39:22;94964.97;;;20.51;100.00
3102;BME280;1561;42.666;23.392;2022-08-19T02:41:48;94958.28;;;20.35;100.00
3102;BME280;1561;42.666;23.392;2022-08-19T02:44:20;94972.09;;;20.15;100.00
3102;BME280;1561;42.666;23.392;2022-08-19T02:46:49;94950.22;;;20.03;100.00
3102;BME280;1561;42.666;23.392;2022-08-19T02:49:24;94975.09;;;20.18;100.00
3102;BME280;1561;42.666;23.392;2022-08-19T02:51:52;94966.47;;;20.32;100.00
3102;BME280;1561;42.666;23.392;2022-08-19T02:54:19;94929.59;;;20.16;100.00
3102;BME280;1561;42.666;23.392;2022-08-19T02:56:47;94952.63;;;20.25;100.00
3102;BME280;1561;42.666;23.392;2022-08-19T02:59:21;94975.59;;;20.28;100.00
3102;BME280;1561;42.666;23.392;2022-08-19T03:01:51;94918.06;;;19.97;100.00
3102;BME280;1561;42.666;23.392;2022-08-19T03:07:12;94973.63;;;20.30;100.00
3102;BME280;1561;42.666;23.392;2022-08-19T03:09:42;94924.19;;;20.11;100.00
3102;BME280;1561;42.666;23.392;2022-08-19T03:12:10;94966.88;;;20.36;100.00
3102;BME280;1561;42.666;23.392;2022-08-19T03:14:39;94972.63;;;20.31;100.00
3102;BME280;1561;42.666;23.392;2022-08-19T03:17:07;94963.94;;;20.18;100.00
3102;BME280;1561;42.666;23.392;2022-08-19T03:19:44;94963.13;;;19.96;100.00
3102;BME280;1561;42.666;23.392;2022-08-19T03:22:13;94962.03;;;19.84;100.00
3102;BME280;1561;42.666;23.392;2022-08-19T03:24:46;94954.03;;;19.79;100.00
3102;BME280;1561;42.666;23.392;2022-08-19T03:27:14;94951.44;;;19.79;100.00
3102;BME280;1561;42.666;23.392;2022-08-19T03:29:45;94951.38;;;19.73;100.00
3102;BME280;1561;42.666;23.392;2022-08-19T03:32:16;94962.41;;;19.81;100.00
3102;BME280;1561;42.666;23.392;2022-08-19T03:34:43;94962.28;;;19.89;100.00
3102;BME280;1561;42.666;23.392;2022-08-19T03:37:14;94967.28;;;19.91;100.00
3102;BME280;1561;42.666;23.392;2022-08-19T03:39:42;94963.09;;;19.90;100.00
3102;BME280;1561;42.666;23.392;2022-08-19T03:42:13;94950.78;;;19.77;100.00
3102;BME280;1561;42.666;23.392;2022-08-19T03:45:00;94973.66;;;19.88;100.00
3102;BME280;1561;42.666;23.392;2022-08-19T03:47:30;94974.88;;;19.92;100.00
3102;BME280;1561;42.666;23.392;2022-08-19T03:49:57;94982.88;;;20.12;100.00
3102;BME280;1561;42.666;23.392;2022-08-19T03:52:30;94977.25;;;19.94;100.00
3102;BME280;1561;42.666;23.392;2022-08-19T03:54:57;94985.69;;;19.96;100.00
3102;BME280;1561;42.666;23.392;2022-08-19T03:57:25;94992.81;;;19.94;100.00
3102;BME280;1561;42.666;23.392;2022-08-19T04:00:05;94992.16;;;20.27;100.00
3102;BME280;1561;42.666;23.392;2022-08-19T04:02:33;94995.25;;;20.65;100.00
3102;BME280;1561;42.666;23.392;2022-08-19T04:05:00;94960.25;;;20.61;100.00
3102;BME280;1561;42.666;23.392;2022-08-19T04:07:29;94976.28;;;20.71;100.00
3102;BME280;1561;42.666;23.392;2022-08-19T04:09:59;94995.75;;;21.22;100.00
3102;BME280;1561;42.666;23.392;2022-08-19T04:12:26;95001.00;;;21.35;100.00
3102;BME280;1561;42.666;23.392;2022-08-19T04:14:54;95003.81;;;21.93;100.00
3102;BME280;1561;42.666;23.392;2022-08-19T04:17:38;95000.44;;;22.45;100.00
3102;BME280;1561;42.666;23.392;2022-08-19T04:20:13;95002.41;;;22.95;100.00
3102;BME280;1561;42.666;23.392;2022-08-19T04:22:42;95005.47;;;22.59;100.00
3102;BME280;1561;42.666;23.392;2022-08-19T04:25:14;95006.28;;;22.66;100.00
3102;BME280;1561;42.666;23.392;2022-08-19T04:27:41;94953.09;;;23.00;100.00
3102;BME280;1561;42.666;23.392;2022-08-19T04:30:13;95003.34;;;23.71;100.00
3102;BME280;1561;42.666;23.392;2022-08-19T04:32:43;95012.47;;;23.55;100.00
3102;BME280;1561;42.666;23.392;2022-08-19T04:35:15;94953.53;;;23.48;100.00
3102;BME280;1561;42.666;23.392;2022-08-19T04:37:43;94890.09;;;22.52;100.00
3102;BME280;1561;42.666;23.392;2022-08-19T04:40:11;95011.25;;;23.58;100.00
3102;BME280;1561;42.666;23.392;2022-08-19T04:42:56;95005.94;;;24.15;100.00
3102;BME280;1561;42.666;23.392;2022-08-19T04:45:24;94954.69;;;24.45;99.63
3102;BME280;1561;42.666;23.392;2022-08-19T04:47:55;94999.25;;;24.74;96.18
3102;BME280;1561;42.666;23.392;2022-08-19T04:50:24;94998.41;;;24.80;96.54
3102;BME280;1561;42.666;23.392;2022-08-19T04:52:52;94996.28;;;25.61;90.17
3102;BME280;1561;42.666;23.392;2022-08-19T04:55:33;94995.75;;;25.23;91.38
3102;BME280;1561;42.666;23.392;2022-08-19T04:58:08;94989.28;;;25.25;91.91
3102;BME280;1561;42.666;23.392;2022-08-19T05:00:39;95005.69;;;25.50;88.34
3102;BME280;1561;42.666;23.392;2022-08-19T05:03:20;95001.63;;;26.02;86.85
3102;BME280;1561;42.666;23.392;2022-08-19T05:05:49;95003.09;;;26.50;84.86
3102;BME280;1561;42.666;23.392;2022-08-19T05:08:21;94996.38;;;27.00;77.07
3102;BME280;1561;42.666;23.392;2022-08-19T05:10:57;95000.56;;;27.87;72.94
3102;BME280;1561;42.666;23.392;2022-08-19T05:13:26;95001.63;;;28.30;68.38
3102;BME280;1561;42.666;23.392;2022-08-19T05:15:54;94992.25;;;28.51;66.45
3102;BME280;1561;42.666;23.392;2022-08-19T05:18:26;95010.09;;;28.04;69.34
3102;BME280;1561;42.666;23.392;2022-08-19T05:21:21;95000.78;;;28.41;67.39
3102;BME280;1561;42.666;23.392;2022-08-19T05:24:06;94971.91;;;28.30;67.75
3102;BME280;1561;42.666;23.392;2022-08-19T05:26:34;94977.44;;;27.72;70.53
3102;BME280;1561;42.666;23.392;2022-08-19T05:29:05;95000.25;;;27.72;69.36
3102;BME280;1561;42.666;23.392;2022-08-19T05:31:37;94999.41;;;27.94;70.51
3102;BME280;1561;42.666;23.392;2022-08-19T05:34:09;95006.19;;;28.07;68.89
3102;BME280;1561;42.666;23.392;2022-08-19T05:36:43;95005.66;;;28.99;65.76
3102;BME280;1561;42.666;23.392;2022-08-19T05:39:13;95005.69;;;29.85;60.63
3102;BME280;1561;42.666;23.392;2022-08-19T05:41:41;95007.34;;;29.48;59.30
3102;BME280;1561;42.666;23.392;2022-08-19T05:44:09;95009.75;;;29.50;61.06
3102;BME280;1561;42.666;23.392;2022-08-19T05:46:41;95001.00;;;30.72;54.26
3102;BME280;1561;42.666;23.392;2022-08-19T05:49:15;95003.66;;;30.40;55.79
3102;BME280;1561;42.666;23.392;2022-08-19T05:51:44;95002.69;;;30.83;54.94
3102;BME280;1561;42.666;23.392;2022-08-19T05:54:11;95004.75;;;31.69;52.03
3102;BME280;1561;42.666;23.392;2022-08-19T05:56:43;95002.66;;;30.78;57.00
3102;BME280;1561;42.666;23.392;2022-08-19T05:59:14;94998.09;;;31.05;56.45
3102;BME280;1561;42.666;23.392;2022-08-19T06:01:45;95009.59;;;30.04;59.58
3102;BME280;1561;42.666;23.392;2022-08-19T06:04:21;95007.47;;;29.37;64.61
3102;BME280;1561;42.666;23.392;2022-08-19T06:06:51;95007.19;;;30.24;61.05
3102;BME280;1561;42.666;23.392;2022-08-19T06:09:20;95005.91;;;30.90;58.30
3102;BME280;1561;42.666;23.392;2022-08-19T06:12:02;95011.75;;;32.00;53.32
3102;BME280;1561;42.666;23.392;2022-08-19T06:14:31;95017.22;;;30.85;57.17
3102;BME280;1561;42.666;23.392;2022-08-19T06:17:02;95010.00;;;30.76;57.82
3102;BME280;1561;42.666;23.392;2022-08-19T06:19:41;95011.09;;;29.95;61.61
3102;BME280;1561;42.666;23.392;2022-08-19T06:22:09;95006.38;;;30.82;57.59
3102;BME280;1561;42.666;23.392;2022-08-19T06:24:42;95020.50;;;30.13;61.63
3102;BME280;1561;42.666;23.392;2022-08-19T06:27:11;95009.38;;;31.37;55.39
3102;BME280;1561;42.666;23.392;2022-08-19T06:29:38;95020.03;;;30.16;59.19
3102;BME280;1561;42.666;23.392;2022-08-19T06:32:08;95014.16;;;29.87;59.50
3102;BME280;1561;42.666;23.392;2022-08-19T06:34:42;95017.84;;;30.66;56.79
3102;BME280;1561;42.666;23.392;2022-08-19T06:37:10;95008.84;;;31.35;53.68
3102;BME280;1561;42.666;23.392;2022-08-19T06:39:41;95022.69;;;31.10;53.59
3102;BME280;1561;42.666;23.392;2022-08-19T06:42:24;95004.59;;;31.90;51.27
3102;BME280;1561;42.666;23.392;2022-08-19T06:44:52;95013.97;;;31.56;52.60
3102;BME280;1561;42.666;23.392;2022-08-19T06:47:20;95004.13;;;32.18;50.43
3102;BME280;1561;42.666;23.392;2022-08-19T06:49:55;95007.09;;;32.52;47.97
3102;BME280;1561;42.666;23.392;2022-08-19T06:52:27;95012.59;;;31.44;50.77
3102;BME280;1561;42.666;23.392;2022-08-19T06:54:56;95010.81;;;31.59;51.23
3102;BME280;1561;42.666;23.392;2022-08-19T06:57:25;95016.25;;;31.99;49.63
3102;BME280;1561;42.666;23.392;2022-08-19T06:59:52;95017.97;;;33.00;46.26
3102;BME280;1561;42.666;23.392;2022-08-19T07:02:22;95012.13;;;32.78;46.98
3102;BME280;1561;42.666;23.392;2022-08-19T07:04:55;95019.03;;;32.84;46.11
3102;BME280;1561;42.666;23.392;2022-08-19T07:07:24;95020.59;;;32.45;46.78
3102;BME280;1561;42.666;23.392;2022-08-19T07:09:52;94980.53;;;31.82;47.53
3102;BME280;1561;42.666;23.392;2022-08-19T07:12:19;95020.25;;;33.57;44.66
3102;BME280;1561;42.666;23.392;2022-08-19T07:14:46;95026.16;;;33.24;44.83
3102;BME280;1561;42.666;23.392;2022-08-19T07:17:14;95024.75;;;33.51;45.53
3102;BME280;1561;42.666;23.392;2022-08-19T07:19:42;95021.13;;;34.49;41.54
3102;BME280;1561;42.666;23.392;2022-08-19T07:22:13;95009.50;;;32.38;46.11
3102;BME280;1561;42.666;23.392;2022-08-19T07:24:43;95017.69;;;33.17;43.80
3102;BME280;1561;42.666;23.392;2022-08-19T07:27:10;95015.88;;;34.83;40.76
3102;BME280;1561;42.666;23.392;2022-08-19T07:29:42;95019.75;;;34.08;41.06
3102;BME280;1561;42.666;23.392;2022-08-19T07:32:10;95015.91;;;36.43;36.84
3102;BME280;1561;42.666;23.392;2022-08-19T07:34:37;94977.88;;;35.82;36.94
3102;BME280;1561;42.666;23.392;2022-08-19T07:37:07;95016.94;;;34.77;39.28
3102;BME280;1561;42.666;23.392;2022-08-19T07:39:37;95013.09;;;34.59;39.73
3102;BME280;1561;42.666;23.392;2022-08-19T07:42:08;95005.16;;;36.11;37.10
3102;BME280;1561;42.666;23.392;2022-08-19T07:44:37;94999.53;;;36.36;36.10
3102;BME280;1561;42.666;23.392;2022-08-19T07:47:05;95012.31;;;36.71;35.14
3102;BME280;1561;42.666;23.392;2022-08-19T07:49:32;95014.09;;;34.25;40.09
3102;BME280;1561;42.666;23.392;2022-08-19T07:52:04;95019.19;;;34.16;40.03
3102;BME280;1561;42.666;23.392;2022-08-19T07:54:36;95006.22;;;35.16;38.27
3102;BME280;1561;42.666;23.392;2022-08-19T07:57:05;95009.38;;;36.86;35.50
3102;BME280;1561;42.666;23.392;2022-08-19T07:59:33;94984.75;;;37.07;34.65
3102;BME280;1561;42.666;23.392;2022-08-19T08:02:01;95005.78;;;36.45;35.77
3102;BME280;1561;42.666;23.392;2022-08-19T08:04:31;95004.22;;;36.57;35.45
3102;BME280;1561;42.666;23.392;2022-08-19T08:07:16;95012.31;;;37.03;34.86
3102;BME280;1561;42.666;23.392;2022-08-19T08:10:06;95002.78;;;36.97;34.74
3102;BME280;1561;42.666;23.392;2022-08-19T08:12:39;95002.28;;;36.63;35.27
3102;BME280;1561;42.666;23.392;2022-08-19T08:15:13;95004.66;;;34.86;38.36
3102;BME280;1561;42.666;23.392;2022-08-19T08:17:49;95004.47;;;37.25;35.00
3102;BME280;1561;42.666;23.392;2022-08-19T08:20:31;94991.97;;;37.66;33.24
3102;BME280;1561;42.666;23.392;2022-08-19T08:22:59;94990.28;;;36.47;35.70
3102;BME280;1561;42.666;23.392;2022-08-19T08:25:46;94999.69;;;35.84;36.55
3102;BME280;1561;42.666;23.392;2022-08-19T08:28:16;94993.06;;;36.74;35.30
3102;BME280;1561;42.666;23.392;2022-08-19T08:30:46;94994.59;;;37.25;34.58
3102;BME280;1561;42.666;23.392;2022-08-19T08:33:18;94988.06;;;39.44;31.47
3102;BME280;1561;42.666;23.392;2022-08-19T08:35:50;94981.22;;;36.11;35.68
3102;BME280;1561;42.666;23.392;2022-08-19T08:38:18;94990.34;;;38.41;32.84
3102;BME280;1561;42.666;23.392;2022-08-19T08:41:09;94982.53;;;38.88;32.08
3102;BME280;1561;42.666;23.392;2022-08-19T08:43:47;94983.91;;;38.55;31.39
3102;BME280;1561;42.666;23.392;2022-08-19T08:46:21;94982.75;;;40.52;28.96
3102;BME280;1561;42.666;23.392;2022-08-19T08:48:56;94987.13;;;37.68;32.51
3102;BME280;1561;42.666;23.392;2022-08-19T08:51:32;94977.81;;;38.06;31.77
3102;BME280;1561;42.666;23.392;2022-08-19T08:54:02;94975.53;;;37.18;32.04
3102;BME280;1561;42.666;23.392;2022-08-19T08:56:41;94959.56;;;38.57;30.56
3102;BME280;1561;42.666;23.392;2022-08-19T08:59:29;94967.22;;;38.14;31.67
3102;BME280;1561;42.666;23.392;2022-08-19T09:02:00;94963.06;;;39.49;30.14
3102;BME280;1561;42.666;23.392;2022-08-19T09:04:28;94957.81;;;39.83;29.39
3102;BME280;1561;42.666;23.392;2022-08-19T09:07:13;94957.22;;;39.47;28.75
3102;BME280;1561;42.666;23.392;2022-08-19T09:09:50;94961.13;;;38.58;30.09
3102;BME280;1561;42.666;23.392;2022-08-19T09:12:30;94954.78;;;38.98;30.15
3102;BME280;1561;42.666;23.392;2022-08-19T09:15:08;94952.69;;;38.64;29.66
3102;BME280;1561;42.666;23.392;2022-08-19T09:17:36;94955.25;;;39.69;28.27
3102;BME280;1561;42.666;23.392;2022-08-19T09:20:05;94943.84;;;40.54;26.83
3102;BME280;1561;42.666;23.392;2022-08-19T09:22:36;94952.72;;;39.73;26.49
3102;BME280;1561;42.666;23.392;2022-08-19T09:25:05;94950.19;;;38.46;27.11
3102;BME280;1561;42.666;23.392;2022-08-19T09:27:35;94908.66;;;38.40;27.20
3102;BME280;1561;42.666;23.392;2022-08-19T09:30:03;94944.75;;;39.98;25.97
3102;BME280;1561;42.666;23.392;2022-08-19T09:32:34;94941.69;;;41.19;24.81
3102;BME280;1561;42.666;23.392;2022-08-19T09:35:08;94927.38;;;39.70;25.81
3102;BME280;1561;42.666;23.392;2022-08-19T09:37:40;94930.44;;;40.11;24.60
3102;BME280;1561;42.666;23.392;2022-08-19T09:40:09;94932.09;;;39.17;25.10
3102;BME280;1561;42.666;23.392;2022-08-19T09:42:40;94927.19;;;41.12;23.45
3102;BME280;1561;42.666;23.392;2022-08-19T09:45:14;94913.69;;;40.91;23.35
3102;BME280;1561;42.666;23.392;2022-08-19T09:47:43;94918.19;;;40.28;24.11
3102;BME280;1561;42.666;23.392;2022-08-19T09:50:12;94917.94;;;40.92;23.25
3102;BME280;1561;42.666;23.392;2022-08-19T09:52:48;94923.72;;;39.10;25.26
3102;BME280;1561;42.666;23.392;2022-08-19T09:55:15;94924.63;;;39.92;24.88
3102;BME280;1561;42.666;23.392;2022-08-19T09:57:44;94911.72;;;40.03;24.69
3102;BME280;1561;42.666;23.392;2022-08-19T10:00:15;94905.50;;;39.68;25.00
3102;BME280;1561;42.666;23.392;2022-08-19T10:02:43;94911.59;;;40.97;23.85
3102;BME280;1561;42.666;23.392;2022-08-19T10:05:11;94870.72;;;38.82;25.43
3102;BME280;1561;42.666;23.392;2022-08-19T10:07:56;94906.75;;;39.15;24.84
3102;BME280;1561;42.666;23.392;2022-08-19T10:10:35;94898.00;;;40.22;23.98
3102;BME280;1561;42.666;23.392;2022-08-19T10:13:07;94897.06;;;41.52;22.74
3102;BME280;1561;42.666;23.392;2022-08-19T10:15:36;94894.88;;;40.37;24.04
3102;BME280;1561;42.666;23.392;2022-08-19T10:18:04;94897.47;;;39.51;24.87
3102;BME280;1561;42.666;23.392;2022-08-19T10:20:33;94890.75;;;39.79;25.27
3102;BME280;1561;42.666;23.392;2022-08-19T10:23:04;94893.88;;;40.75;24.30
3102;BME280;1561;42.666;23.392;2022-08-19T10:25:34;94897.34;;;41.22;23.08
3102;BME280;1561;42.666;23.392;2022-08-19T10:28:01;94894.22;;;40.14;23.95
3102;BME280;1561;42.666;23.392;2022-08-19T10:30:30;94878.03;;;40.02;24.22
3102;BME280;1561;42.666;23.392;2022-08-19T10:32:58;94891.47;;;38.76;25.99
3102;BME280;1561;42.666;23.392;2022-08-19T10:35:26;94879.00;;;38.94;25.82
3102;BME280;1561;42.666;23.392;2022-08-19T10:37:53;94883.13;;;39.47;25.60
3102;BME280;1561;42.666;23.392;2022-08-19T10:40:25;94875.91;;;39.65;25.05
3102;BME280;1561;42.666;23.392;2022-08-19T10:42:57;94878.31;;;39.75;25.22
3102;BME280;1561;42.666;23.392;2022-08-19T10:45:26;94876.28;;;39.89;25.14
3102;BME280;1561;42.666;23.392;2022-08-19T10:47:57;94877.72;;;39.30;25.31
3102;BME280;1561;42.666;23.392;2022-08-19T10:50:25;94870.91;;;40.06;25.14
3102;BME280;1561;42.666;23.392;2022-08-19T10:53:12;94863.69;;;40.24;24.58
3102;BME280;1561;42.666;23.392;2022-08-19T10:55:40;94870.69;;;39.43;25.60
3102;BME280;1561;42.666;23.392;2022-08-19T10:58:26;94870.00;;;40.02;25.76
3102;BME280;1561;42.666;23.392;2022-08-19T11:00:58;94863.97;;;41.02;24.95
3102;BME280;1561;42.666;23.392;2022-08-19T11:03:36;94867.00;;;40.92;24.76
3102;BME280;1561;42.666;23.392;2022-08-19T11:06:10;94863.69;;;40.87;23.62
3102;BME280;1561;42.666;23.392;2022-08-19T11:08:39;94865.25;;;40.33;24.41
3102;BME280;1561;42.666;23.392;2022-08-19T11:11:12;94866.00;;;40.51;24.54
3102;BME280;1561;42.666;23.392;2022-08-19T11:13:40;94862.88;;;39.80;24.53
3102;BME280;1561;42.666;23.392;2022-08-19T11:16:11;94861.94;;;38.81;26.35
3102;BME280;1561;42.666;23.392;2022-08-19T11:18:44;94851.97;;;39.43;26.08
3102;BME280;1561;42.666;23.392;2022-08-19T11:21:15;94861.47;;;40.34;24.53
3102;BME280;1561;42.666;23.392;2022-08-19T11:23:45;94853.28;;;39.79;24.73
3102;BME280;1561;42.666;23.392;2022-08-19T11:26:18;94856.78;;;38.32;26.67
3102;BME280;1561;42.666;23.392;2022-08-19T11:28:49;94852.47;;;37.65;27.13
3102;BME280;1561;42.666;23.392;2022-08-19T11:31:24;94853.88;;;37.63;27.06
3102;BME280;1561;42.666;23.392;2022-08-19T11:33:56;94847.78;;;37.84;26.97
3102;BME280;1561;42.666;23.392;2022-08-19T11:36:25;94836.44;;;37.30;27.57
3102;BME280;1561;42.666;23.392;2022-08-19T11:38:55;94830.44;;;37.11;27.68
3102;BME280;1561;42.666;23.392;2022-08-19T11:41:25;94833.09;;;36.84;28.12
3102;BME280;1561;42.666;23.392;2022-08-19T11:43:53;94834.50;;;36.17;28.98
3102;BME280;1561;42.666;23.392;2022-08-19T11:46:24;94831.81;;;36.95;28.49
3102;BME280;1561;42.666;23.392;2022-08-19T11:49:07;94845.72;;;36.33;29.31
3102;BME280;1561;42.666;23.392;2022-08-19T11:51:39;94829.38;;;36.07;29.29
3102;BME280;1561;42.666;23.392;2022-08-19T11:54:09;94788.56;;;35.98;29.46
3102;BME280;1561;42.666;23.392;2022-08-19T11:56:37;94830.09;;;36.45;28.85
3102;BME280;1561;42.666;23.392;2022-08-19T11:59:07;94830.56;;;36.47;29.05
3102;BME280;1561;42.666;23.392;2022-08-19T12:01:34;94827.34;;;37.31;28.01
3102;BME280;1561;42.666;23.392;2022-08-19T12:04:03;94823.03;;;36.67;28.74
3102;BME280;1561;42.666;23.392;2022-08-19T12:06:33;94816.38;;;36.51;28.90
3102;BME280;1561;42.666;23.392;2022-08-19T12:09:07;94807.78;;;36.09;29.22
3102;BME280;1561;42.666;23.392;2022-08-19T12:11:35;94814.47;;;36.06;29.44
3102;BME280;1561;42.666;23.392;2022-08-19T12:14:09;94812.38;;;36.67;28.94
3102;BME280;1561;42.666;23.392;2022-08-19T12:16:37;94811.59;;;36.80;28.95
3102;BME280;1561;42.666;23.392;2022-08-19T12:19:12;94807.53;;;36.83;28.78
3102;BME280;1561;42.666;23.392;2022-08-19T12:21:41;94800.22;;;36.75;28.96
3102;BME280;1561;42.666;23.392;2022-08-19T12:24:08;94790.59;;;35.88;29.81
3102;BME280;1561;42.666;23.392;2022-08-19T12:26:38;94789.16;;;36.54;29.52
3102;BME280;1561;42.666;23.392;2022-08-19T12:29:05;94775.97;;;36.90;29.37
3102;BME280;1561;42.666;23.392;2022-08-19T12:31:33;94761.63;;;37.26;28.47
3102;BME280;1561;42.666;23.392;2022-08-19T12:34:01;94773.34;;;37.39;28.85
3102;BME280;1561;42.666;23.392;2022-08-19T12:36:29;94780.28;;;36.99;28.86
3102;BME280;1561;42.666;23.392;2022-08-19T12:39:02;94778.31;;;37.54;28.60
3102;BME280;1561;42.666;23.392;2022-08-19T12:41:39;94773.03;;;37.40;29.39
3102;BME280;1561;42.666;23.392;2022-08-19T12:44:08;94763.22;;;37.14;28.72
3102;BME280;1561;42.666;23.392;2022-08-19T12:46:39;94775.06;;;36.54;29.29
3102;BME280;1561;42.666;23.392;2022-08-19T12:49:09;94783.44;;;36.15;30.28
3102;BME280;1561;42.666;23.392;2022-08-19T12:51:38;94778.53;;;35.40;31.20
3102;BME280;1561;42.666;23.392;2022-08-19T12:54:07;94771.56;;;35.44;31.35
3102;BME280;1561;42.666;23.392;2022-08-19T12:56:45;94768.47;;;36.19;30.75
3102;BME280;1561;42.666;23.392;2022-08-19T12:59:18;94765.75;;;35.79;30.82
3102;BME280;1561;42.666;23.392;2022-08-19T13:01:47;94768.50;;;35.69;31.29
3102;BME280;1561;42.666;23.392;2022-08-19T13:04:15;94762.53;;;36.09;30.50
3102;BME280;1561;42.666;23.392;2022-08-19T13:06:44;94762.31;;;36.24;30.35
3102;BME280;1561;42.666;23.392;2022-08-19T13:09:13;94758.31;;;36.08;30.50
3102;BME280;1561;42.666;23.392;2022-08-19T13:11:44;94755.94;;;36.52;30.01
3102;BME280;1561;42.666;23.392;2022-08-19T13:14:17;94714.94;;;36.39;29.98
3102;BME280;1561;42.666;23.392;2022-08-19T13:16:46;94765.00;;;35.73;30.66
3102;BME280;1561;42.666;23.392;2022-08-19T13:19:16;94755.53;;;36.45;29.78
3102;BME280;1561;42.666;23.392;2022-08-19T13:21:49;94750.03;;;36.09;30.45
3102;BME280;1561;42.666;23.392;2022-08-19T13:24:16;94747.94;;;36.38;30.17
3102;BME280;1561;42.666;23.392;2022-08-19T13:26:44;94750.41;;;36.35;30.02
3102;BME280;1561;42.666;23.392;2022-08-19T13:29:13;94741.25;;;36.09;30.07
3102;BME280;1561;42.666;23.392;2022-08-19T13:31:59;94747.44;;;36.23;30.50